Time;durP1;ratioP1;P1;durP2;ratioP2;P2;SDS_P1;SDS_P2;PMS_P1;PMS_P2;Temp;Humidity;BMP_temperature;BMP_pressure;BME280_temperature;BME280_humidity;BME280_pressure;Samples;Min_cycle;Max_cycle;Signal;HPM_P1;HPM_P2
2021/04/13 00:00:35;;;;;;;8.35;2.25;;;2.90;95.00;;;;;;5136708;27;20371;-70
2021/04/13 00:03:08;;;;;;;6.43;1.10;;;2.90;95.10;;;;;;5137235;27;20035;-70
2021/04/13 00:05:44;;;;;;;8.10;1.92;;;2.90;95.10;;;;;;5136279;27;20035;-70
2021/04/13 00:08:21;;;;;;;4.80;1.48;;;2.90;95.10;;;;;;5136319;27;20042;-70
2021/04/13 00:10:56;;;;;;;7.40;1.33;;;2.80;95.10;;;;;;5136465;27;20108;-70
2021/04/13 00:13:24;;;;;;;6.05;1.67;;;2.80;95.30;;;;;;5136189;27;20047;-70
2021/04/13 00:15:53;;;;;;;4.05;1.60;;;2.80;95.10;;;;;;5136097;27;20031;-70
2021/04/13 00:18:24;;;;;;;4.75;1.67;;;2.80;95.20;;;;;;5136175;27;20042;-70
2021/04/13 00:20:57;;;;;;;7.65;1.85;;;2.80;95.20;;;;;;5136597;27;20037;-70
2021/04/13 00:23:25;;;;;;;7.07;2.03;;;2.80;95.30;;;;;;5136141;27;20457;-70
2021/04/13 00:25:57;;;;;;;11.52;1.65;;;2.80;95.30;;;;;;5135867;27;20039;-70
2021/04/13 00:28:34;;;;;;;11.20;2.05;;;2.80;95.30;;;;;;5135189;27;20579;-70
2021/04/13 00:31:04;;;;;;;5.80;1.55;;;2.70;95.40;;;;;;5136213;27;20059;-70
2021/04/13 00:33:35;;;;;;;6.68;2.03;;;2.70;95.30;;;;;;5135981;27;20043;-70
2021/04/13 00:36:11;;;;;;;5.35;1.30;;;2.70;95.30;;;;;;5135522;27;20035;-70
2021/04/13 00:38:41;;;;;;;8.02;2.17;;;2.70;95.40;;;;;;5135883;27;20058;-70
2021/04/13 00:41:20;;;;;;;7.28;1.48;;;2.70;95.40;;;;;;5136328;27;20043;-70
2021/04/13 00:43:56;;;;;;;7.38;1.58;;;2.70;95.50;;;;;;5136125;27;20035;-70
2021/04/13 00:46:27;;;;;;;9.73;1.48;;;2.70;95.50;;;;;;5135559;27;20086;-71
2021/04/13 00:48:54;;;;;;;11.05;2.03;;;2.70;95.40;;;;;;5136352;27;20035;-70
2021/04/13 00:51:29;;;;;;;5.50;1.60;;;2.60;95.50;;;;;;5135755;27;20062;-70
2021/04/13 00:54:06;;;;;;;8.68;1.63;;;2.70;95.50;;;;;;5134469;27;20547;-70
2021/04/13 00:56:33;;;;;;;9.48;2.60;;;2.70;95.40;;;;;;5135136;27;20039;-70
2021/04/13 00:59:06;;;;;;;6.32;1.58;;;2.70;95.50;;;;;;5135858;27;20114;-70
2021/04/13 01:01:40;;;;;;;5.10;1.33;;;2.70;95.60;;;;;;5135977;27;20427;-70
2021/04/13 01:04:13;;;;;;;9.10;3.28;;;2.70;95.80;;;;;;5135739;27;20046;-70
2021/04/13 01:06:39;;;;;;;14.15;2.33;;;2.80;96.00;;;;;;5135012;27;20586;-70
2021/04/13 01:09:16;;;;;;;9.90;1.35;;;3.00;95.80;;;;;;5135807;27;20109;-70
2021/04/13 01:11:48;;;;;;;6.22;1.58;;;3.00;95.60;;;;;;5135846;27;20042;-70
2021/04/13 01:14:15;;;;;;;9.73;2.20;;;3.00;95.50;;;;;;5135724;27;20035;-70
2021/04/13 01:16:48;;;;;;;10.95;1.65;;;2.90;95.40;;;;;;5135039;27;20040;-70
2021/04/13 01:19:24;;;;;;;12.30;2.25;;;3.00;95.40;;;;;;5135159;27;20440;-70
2021/04/13 01:22:15;;;;;;;4.38;1.00;;;2.90;95.40;;;;;;5134323;27;20031;-70
2021/04/13 01:24:50;;;;;;;10.35;1.63;;;2.90;95.30;;;;;;5133979;27;20041;-70
2021/04/13 01:27:18;;;;;;;9.50;1.52;;;2.90;95.20;;;;;;5134837;27;20065;-70
2021/04/13 01:29:45;;;;;;;10.73;1.73;;;2.90;95.20;;;;;;5135217;27;20038;-70
2021/04/13 01:32:12;;;;;;;6.00;1.63;;;2.90;95.10;;;;;;5135259;27;20126;-70
2021/04/13 01:34:47;;;;;;;8.23;1.90;;;2.90;95.00;;;;;;5134744;27;20465;-70
2021/04/13 01:37:49;;;;;;;9.07;1.60;;;2.90;94.90;;;;;;5135006;27;20130;-70
2021/04/13 01:41:41;;;;;;;6.07;1.00;;;2.90;94.80;;;;;;5134722;27;20504;-70
2021/04/13 01:43:28;;;;;;;10.30;1.80;;;2.90;94.80;;;;;;5129430;27;20451;-70
2021/04/13 01:45:58;;;;;;;3.17;1.10;;;2.90;94.70;;;;;;5132956;27;20149;-70
2021/04/13 01:48:24;;;;;;;8.40;1.33;;;2.90;94.60;;;;;;5134821;27;20047;-70
2021/04/13 01:50:57;;;;;;;5.43;1.40;;;2.90;94.60;;;;;;5134989;27;20039;-70
2021/04/13 01:53:26;;;;;;;6.27;1.47;;;2.90;94.50;;;;;;5135074;27;20122;-70
2021/04/13 01:55:57;;;;;;;8.32;1.30;;;2.90;94.50;;;;;;5133993;27;20281;-70
2021/04/13 01:58:44;;;;;;;8.27;0.98;;;2.80;94.50;;;;;;5135022;27;20087;-70
2021/04/13 02:01:20;;;;;;;7.93;1.83;;;2.80;94.60;;;;;;5135089;27;20464;-72
2021/04/13 02:04:04;;;;;;;4.47;1.10;;;2.80;94.50;;;;;;5134315;27;20066;-72
2021/04/13 02:07:03;;;;;;;11.57;1.25;;;2.80;94.70;;;;;;5134007;27;20039;-70
2021/04/13 02:09:44;;;;;;;6.95;1.80;;;2.70;94.70;;;;;;5134689;27;20046;-70
2021/04/13 02:12:14;;;;;;;7.63;1.30;;;2.80;95.00;;;;;;5133095;27;20083;-70
2021/04/13 02:14:49;;;;;;;4.78;1.15;;;2.70;94.70;;;;;;5133867;27;20064;-70
2021/04/13 02:17:23;;;;;;;7.10;1.25;;;2.70;94.60;;;;;;5134179;27;20043;-70
2021/04/13 02:19:50;;;;;;;5.63;1.50;;;2.70;94.70;;;;;;5134775;27;20035;-70
2021/04/13 02:22:18;;;;;;;7.50;1.30;;;2.60;94.80;;;;;;5134251;27;20498;-70
2021/04/13 02:24:45;;;;;;;5.00;1.30;;;2.60;94.90;;;;;;5134282;27;20548;-70
2021/04/13 02:27:28;;;;;;;12.38;1.85;;;2.60;95.00;;;;;;5134066;27;20039;-70
2021/04/13 02:30:03;;;;;;;6.07;1.10;;;2.60;95.10;;;;;;5134125;27;20475;-70
2021/04/13 02:32:31;;;;;;;12.35;1.65;;;2.60;95.10;;;;;;5134056;27;20447;-70
2021/04/13 02:35:02;;;;;;;9.18;1.52;;;2.50;95.20;;;;;;5134078;27;20062;-70
2021/04/13 02:37:50;;;;;;;7.45;1.35;;;2.50;95.10;;;;;;5138877;27;20054;-70
2021/04/13 02:40:24;;;;;;;7.68;1.33;;;2.50;95.30;;;;;;5138523;27;20035;-70
2021/04/13 02:42:53;;;;;;;13.07;3.05;;;2.40;95.30;;;;;;5138305;27;20455;-70
2021/04/13 02:45:30;;;;;;;11.27;2.83;;;2.50;95.50;;;;;;5137979;27;20043;-70
2021/04/13 02:48:08;;;;;;;7.88;1.30;;;2.50;95.50;;;;;;5137964;27;20080;-70
2021/04/13 02:50:36;;;;;;;6.97;2.05;;;2.40;95.30;;;;;;5138199;27;20420;-70
2021/04/13 02:53:06;;;;;;;12.10;2.42;;;2.40;95.40;;;;;;5138200;27;20039;-70
2021/04/13 02:55:37;;;;;;;6.50;1.55;;;2.40;95.50;;;;;;5137580;27;20039;-70
2021/04/13 02:58:07;;;;;;;10.13;1.70;;;2.40;95.50;;;;;;5136618;27;20117;-70
2021/04/13 03:00:44;;;;;;;11.60;2.00;;;2.40;95.50;;;;;;5138003;27;20031;-70
2021/04/13 03:03:14;;;;;;;9.90;1.83;;;2.40;95.60;;;;;;5137920;27;20039;-70
2021/04/13 03:05:41;;;;;;;10.25;1.85;;;2.40;95.50;;;;;;5137280;27;20035;-70
2021/04/13 03:08:10;;;;;;;5.85;1.63;;;2.40;95.50;;;;;;5137477;27;20030;-70
2021/04/13 03:10:42;;;;;;;8.20;1.17;;;2.40;95.70;;;;;;5136925;27;20031;-70
2021/04/13 03:13:32;;;;;;;14.73;1.90;;;2.40;95.60;;;;;;5137597;27;20059;-70
2021/04/13 03:15:59;;;;;;;13.75;2.10;;;2.40;95.60;;;;;;5137223;27;20035;-70
2021/04/13 03:18:54;;;;;;;6.50;2.03;;;2.40;95.80;;;;;;5138072;27;20031;-70
2021/04/13 03:21:27;;;;;;;16.98;2.67;;;2.40;95.60;;;;;;5131429;27;20047;-70
2021/04/13 03:23:56;;;;;;;17.33;2.63;;;2.50;95.70;;;;;;5137811;27;20047;-70
2021/04/13 03:26:29;;;;;;;12.55;3.05;;;2.40;95.60;;;;;;5136988;27;20309;-70
2021/04/13 03:28:58;;;;;;;6.95;2.05;;;2.50;95.60;;;;;;5137970;27;20046;-70
2021/04/13 03:31:31;;;;;;;10.10;1.85;;;2.40;95.60;;;;;;5137782;27;20035;-70
2021/04/13 03:34:06;;;;;;;19.23;2.78;;;2.40;95.50;;;;;;5135981;27;20039;-70
2021/04/13 03:36:34;;;;;;;9.90;1.80;;;2.40;95.50;;;;;;5136584;27;20035;-70
2021/04/13 03:39:27;;;;;;;13.73;1.58;;;2.40;95.60;;;;;;5137043;27;20039;-70
2021/04/13 03:41:54;;;;;;;8.70;1.70;;;2.40;95.50;;;;;;5132811;27;20054;-70
2021/04/13 03:44:20;;;;;;;11.27;2.03;;;2.40;95.60;;;;;;5136939;27;20083;-70
2021/04/13 03:46:47;;;;;;;14.82;3.00;;;2.40;95.40;;;;;;5135965;27;20114;-70
2021/04/13 03:49:41;;;;;;;11.32;2.00;;;2.40;95.40;;;;;;5137214;27;20039;-70
2021/04/13 03:52:26;;;;;;;11.02;1.92;;;2.50;95.40;;;;;;5137472;27;20042;-70
2021/04/13 03:54:53;;;;;;;10.98;2.10;;;2.60;95.50;;;;;;5136348;27;20126;-70
2021/04/13 03:57:35;;;;;;;10.93;2.17;;;2.60;95.60;;;;;;5137152;27;20035;-70
2021/04/13 04:00:06;;;;;;;10.02;1.80;;;2.70;95.50;;;;;;5136579;27;20035;-70
2021/04/13 04:02:32;;;;;;;11.82;2.33;;;2.70;95.30;;;;;;5137101;27;20031;-70
2021/04/13 04:05:15;;;;;;;9.05;2.35;;;2.70;95.30;;;;;;5136669;27;20035;-70
2021/04/13 04:10:41;;;;;;;12.02;1.90;;;2.70;95.10;;;;;;5136841;27;20487;-70
2021/04/13 04:13:21;;;;;;;14.05;3.08;;;2.70;95.10;;;;;;5136994;27;20036;-70
2021/04/13 04:15:52;;;;;;;10.15;2.10;;;2.60;95.10;;;;;;5136121;27;20035;-70
2021/04/13 04:18:29;;;;;;;6.50;1.50;;;2.60;95.10;;;;;;5136769;27;20039;-70
2021/04/13 04:20:58;;;;;;;12.90;2.33;;;2.60;95.00;;;;;;5136632;27;20122;-70
2021/04/13 04:23:29;;;;;;;13.32;1.85;;;2.60;95.00;;;;;;5136807;27;20039;-70
2021/04/13 04:26:00;;;;;;;13.23;2.40;;;2.60;95.00;;;;;;5135790;27;20115;-70
2021/04/13 04:28:32;;;;;;;9.35;1.92;;;2.60;95.10;;;;;;5136594;27;20042;-70
2021/04/13 04:31:34;;;;;;;16.52;1.60;;;2.60;95.10;;;;;;5134927;27;20042;-70
2021/04/13 04:34:21;;;;;;;11.98;1.98;;;2.60;95.00;;;;;;5134635;27;20035;-70
2021/04/13 04:36:54;;;;;;;6.93;1.70;;;2.60;94.90;;;;;;5135675;27;20066;-70
2021/04/13 04:39:38;;;;;;;8.00;1.90;;;2.60;94.90;;;;;;5134712;27;20062;-70
2021/04/13 04:42:20;;;;;;;8.63;1.70;;;2.60;95.00;;;;;;5134630;27;20424;-70
2021/04/13 04:45:15;;;;;;;7.50;2.00;;;2.60;95.10;;;;;;5135884;27;20039;-70
2021/04/13 04:47:42;;;;;;;10.23;2.08;;;2.60;95.10;;;;;;5135668;27;20545;-70
2021/04/13 04:50:11;;;;;;;12.27;2.05;;;2.60;95.20;;;;;;5136066;27;20044;-70
2021/04/13 04:52:37;;;;;;;10.98;1.75;;;2.70;95.10;;;;;;5136117;27;20039;-70
2021/04/13 04:55:04;;;;;;;11.25;1.95;;;2.70;95.10;;;;;;5133928;27;20067;-70
2021/04/13 04:57:30;;;;;;;9.00;1.75;;;2.70;95.10;;;;;;5135410;27;20039;-70
2021/04/13 04:59:56;;;;;;;13.20;1.92;;;2.70;95.20;;;;;;5134674;27;20035;-70
2021/04/13 05:02:21;;;;;;;6.88;1.77;;;2.80;95.00;;;;;;5135324;27;20031;-70
2021/04/13 05:04:47;;;;;;;13.85;1.92;;;2.80;94.90;;;;;;5135363;27;20486;-70
2021/04/13 05:07:13;;;;;;;10.43;1.65;;;2.70;94.80;;;;;;5135353;27;20398;-70
2021/04/13 05:09:39;;;;;;;13.10;1.80;;;2.80;94.90;;;;;;5135139;27;20088;-70
2021/04/13 05:12:06;;;;;;;10.52;1.77;;;2.80;94.90;;;;;;5135217;27;20042;-72
2021/04/13 05:14:32;;;;;;;10.85;2.20;;;2.80;94.90;;;;;;5134993;27;20422;-70
2021/04/13 05:16:58;;;;;;;12.32;2.17;;;2.80;95.00;;;;;;5134060;27;20456;-70
2021/04/13 05:19:24;;;;;;;9.00;2.97;;;2.90;94.80;;;;;;5134377;27;20410;-70
2021/04/13 05:21:50;;;;;;;11.45;2.22;;;3.00;95.10;;;;;;5135100;27;20039;-70
2021/04/13 05:24:16;;;;;;;9.85;2.15;;;3.10;94.70;;;;;;5134902;27;20035;-70
2021/04/13 05:26:41;;;;;;;8.73;2.28;;;3.20;94.70;;;;;;5134627;27;20035;-70
2021/04/13 05:29:07;;;;;;;6.43;1.80;;;3.40;94.50;;;;;;5134863;27;20035;-70
2021/04/13 05:31:34;;;;;;;12.95;2.83;;;3.50;94.50;;;;;;5135119;27;20519;-70
2021/04/13 05:34:00;;;;;;;11.15;2.05;;;3.70;94.00;;;;;;5134875;27;20035;-70
2021/04/13 05:36:26;;;;;;;12.23;2.10;;;3.80;93.80;;;;;;5134404;27;20502;-70
2021/04/13 05:38:52;;;;;;;21.08;3.60;;;4.00;93.60;;;;;;5134780;27;20062;-71
2021/04/13 05:41:19;;;;;;;11.90;1.88;;;4.20;93.30;;;;;;5135184;27;20372;-72
2021/04/13 05:43:44;;;;;;;6.57;1.95;;;4.30;92.90;;;;;;5134720;27;20035;-72
2021/04/13 05:46:16;;;;;;;12.43;2.25;;;4.40;92.70;;;;;;5134233;27;20161;-72
2021/04/13 05:48:42;;;;;;;8.85;2.00;;;4.50;92.50;;;;;;5134566;27;20042;-72
2021/04/13 05:51:08;;;;;;;14.40;2.28;;;4.60;92.20;;;;;;5134491;27;20118;-71
2021/04/13 05:53:33;;;;;;;15.15;2.50;;;4.70;91.80;;;;;;5134592;27;20035;-70
2021/04/13 05:55:59;;;;;;;9.48;2.70;;;4.80;91.80;;;;;;5134181;27;20031;-70
2021/04/13 05:58:32;;;;;;;20.80;2.58;;;5.00;91.40;;;;;;5134411;27;20046;-70
2021/04/13 06:01:03;;;;;;;11.23;2.00;;;5.10;91.30;;;;;;5134502;27;20117;-70
2021/04/13 06:03:28;;;;;;;12.65;2.30;;;5.20;91.00;;;;;;5133129;27;20027;-70
2021/04/13 06:05:56;;;;;;;13.32;2.65;;;5.40;90.70;;;;;;5133903;27;20706;-70
2021/04/13 06:08:22;;;;;;;10.05;2.13;;;5.60;90.30;;;;;;5134583;27;20037;-71
2021/04/13 06:10:49;;;;;;;13.23;1.80;;;5.70;90.20;;;;;;5133873;27;20070;-69
2021/04/13 06:13:16;;;;;;;11.20;2.65;;;5.80;88.90;;;;;;5134687;27;20039;-70
2021/04/13 06:15:41;;;;;;;10.00;1.73;;;6.00;88.60;;;;;;5133725;27;20035;-70
2021/04/13 06:18:07;;;;;;;14.18;2.00;;;6.20;87.80;;;;;;5134278;27;20039;-70
2021/04/13 06:20:34;;;;;;;8.40;3.75;;;6.30;87.00;;;;;;5134093;27;20039;-70
2021/04/13 06:23:00;;;;;;;12.63;2.42;;;6.30;86.60;;;;;;5134019;27;20053;-70
2021/04/13 06:25:29;;;;;;;5.65;1.80;;;6.20;86.40;;;;;;5133950;27;20151;-70
2021/04/13 06:27:56;;;;;;;9.75;2.60;;;6.00;87.10;;;;;;5133777;27;20060;-70
2021/04/13 06:30:23;;;;;;;11.25;2.40;;;5.80;87.10;;;;;;5133602;27;20109;-70
2021/04/13 06:32:51;;;;;;;9.10;2.05;;;5.60;87.50;;;;;;5133796;27;20032;-70
2021/04/13 06:35:18;;;;;;;13.05;2.35;;;5.80;87.80;;;;;;5133866;27;20042;-70
2021/04/13 06:37:45;;;;;;;10.82;1.65;;;6.20;87.40;;;;;;5133925;27;20067;-70
2021/04/13 06:40:27;;;;;;;6.07;2.17;;;6.40;86.10;;;;;;5134238;27;20039;-70
2021/04/13 06:43:30;;;;;;;12.88;3.67;;;6.80;84.60;;;;;;5134476;27;20031;-70
2021/04/13 06:46:50;;;;;;;5.70;1.52;;;7.00;83.80;;;;;;5133519;27;20045;-70
2021/04/13 06:49:40;;;;;;;10.27;2.65;;;7.10;82.40;;;;;;5124855;27;20047;-70
2021/04/13 06:52:20;;;;;;;5.78;2.75;;;7.50;82.00;;;;;;5134415;27;20046;-70
2021/04/13 06:55:03;;;;;;;9.70;2.33;;;7.60;80.40;;;;;;5133445;27;20478;-70
2021/04/13 06:57:37;;;;;;;6.73;1.57;;;7.70;79.50;;;;;;5134208;27;20035;-71
2021/04/13 07:00:23;;;;;;;7.38;1.63;;;7.90;79.60;;;;;;5134426;28;20174;-70
2021/04/13 07:03:14;;;;;;;12.60;2.35;;;8.10;77.90;;;;;;5133917;28;20376;-71
2021/04/13 07:05:58;;;;;;;5.97;1.77;;;8.30;76.80;;;;;;5132120;28;20036;-70
2021/04/13 07:08:40;;;;;;;11.23;1.80;;;8.30;76.30;;;;;;5133601;27;20047;-71
2021/04/13 07:11:36;;;;;;;5.18;1.38;;;8.10;76.20;;;;;;5132890;28;20047;-71
2021/04/13 07:14:16;;;;;;;12.13;2.25;;;7.90;77.60;;;;;;5129755;28;20047;-70
2021/04/13 07:17:05;;;;;;;10.88;1.90;;;8.10;77.20;;;;;;5133852;27;20035;-71
2021/04/13 07:20:00;;;;;;;5.90;1.50;;;8.10;76.70;;;;;;5134051;27;20031;-71
2021/04/13 07:22:40;;;;;;;7.78;1.48;;;7.90;76.80;;;;;;5132942;27;20078;-71
2021/04/13 07:25:21;;;;;;;4.90;1.15;;;8.10;76.30;;;;;;5137407;27;20054;-71
2021/04/13 07:28:01;;;;;;;8.30;1.20;;;8.40;76.10;;;;;;5137175;27;20027;-71
2021/04/13 07:30:55;;;;;;;11.85;3.72;;;8.70;76.30;;;;;;5137670;27;20435;-71
2021/04/13 07:33:25;;;;;;;8.20;2.15;;;8.80;74.70;;;;;;5137785;27;20043;-71
2021/04/13 07:35:57;;;;;;;13.10;1.60;;;8.90;73.60;;;;;;5136838;27;20080;-70
2021/04/13 07:38:26;;;;;;;7.35;2.17;;;9.10;74.10;;;;;;5137721;27;20478;-71
2021/04/13 07:40:58;;;;;;;5.60;2.05;;;9.10;72.90;;;;;;5137645;27;20035;-70
2021/04/13 07:43:43;;;;;;;7.10;1.10;;;9.30;72.10;;;;;;5137235;27;20039;-71
2021/04/13 07:46:45;;;;;;;5.18;1.27;;;9.50;72.40;;;;;;5136610;27;20088;-70
2021/04/13 07:49:31;;;;;;;11.02;1.63;;;9.30;72.10;;;;;;5137317;27;20031;-70
2021/04/13 07:51:59;;;;;;;11.80;1.63;;;9.50;71.70;;;;;;5136727;27;20066;-70
2021/04/13 07:54:37;;;;;;;8.18;1.25;;;9.50;71.50;;;;;;5136380;27;20455;-71
2021/04/13 07:57:18;;;;;;;5.13;1.45;;;9.50;71.40;;;;;;5137186;27;20042;-70
2021/04/13 08:00:08;;;;;;;9.80;1.77;;;9.60;71.30;;;;;;5136587;27;20043;-70
2021/04/13 08:02:34;;;;;;;11.63;2.08;;;9.50;71.40;;;;;;5136672;27;20035;-70
2021/04/13 08:05:01;;;;;;;4.88;1.20;;;9.60;71.40;;;;;;5136191;27;20067;-69
2021/04/13 08:07:35;;;;;;;8.05;1.23;;;9.60;71.70;;;;;;5136581;27;20035;-71
2021/04/13 08:10:09;;;;;;;6.97;1.02;;;9.40;70.90;;;;;;5136386;27;20031;-70
2021/04/13 08:12:54;;;;;;;4.22;1.35;;;9.20;72.30;;;;;;5136376;27;20043;-71
2021/04/13 08:15:42;;;;;;;5.00;1.73;;;9.20;72.80;;;;;;5136104;27;20046;-70
2021/04/13 08:18:35;;;;;;;11.15;1.30;;;8.90;72.70;;;;;;5136578;27;20063;-71
2021/04/13 08:21:22;;;;;;;10.43;1.23;;;8.60;73.20;;;;;;5128387;27;20054;-71
2021/04/13 08:23:51;;;;;;;6.20;1.40;;;8.10;73.70;;;;;;5136045;27;20043;-71
2021/04/13 08:26:34;;;;;;;10.63;1.80;;;8.10;75.40;;;;;;5135796;27;20380;-70
2021/04/13 08:29:41;;;;;;;8.38;1.40;;;7.90;76.60;;;;;;5136147;27;20035;-70
2021/04/13 08:32:56;;;;;;;7.90;1.38;;;7.70;77.30;;;;;;5112616;27;20051;-70
2021/04/13 08:35:31;;;;;;;6.38;1.55;;;7.40;78.70;;;;;;5134416;27;20088;-70
2021/04/13 08:38:16;;;;;;;5.25;1.20;;;7.50;77.50;;;;;;5135802;27;20047;-70
2021/04/13 08:41:00;;;;;;;23.25;3.00;;;7.80;77.30;;;;;;5136158;27;20031;-70
2021/04/13 08:43:49;;;;;;;9.95;2.78;;;8.30;76.80;;;;;;5135741;27;20058;-70
2021/04/13 08:46:26;;;;;;;7.72;1.42;;;8.80;75.30;;;;;;5135997;27;20031;-70
2021/04/13 08:49:00;;;;;;;13.98;1.80;;;8.90;73.50;;;;;;5135612;27;20027;-71
2021/04/13 08:51:42;;;;;;;7.05;1.23;;;8.70;73.60;;;;;;5136020;27;20063;-70
2021/04/13 08:54:27;;;;;;;9.25;1.52;;;9.00;74.70;;;;;;5135909;27;20080;-70
2021/04/13 08:57:04;;;;;;;7.43;1.38;;;9.40;74.10;;;;;;5135568;27;20039;-70
2021/04/13 08:59:38;;;;;;;9.35;1.65;;;9.60;71.90;;;;;;5135403;27;20042;-71
2021/04/13 09:02:11;;;;;;;8.65;1.58;;;9.20;71.80;;;;;;5135541;27;20109;-70
2021/04/13 09:04:37;;;;;;;5.50;1.50;;;8.80;72.10;;;;;;5135651;27;20031;-71
2021/04/13 09:07:08;;;;;;;9.40;1.55;;;8.70;71.20;;;;;;5135012;27;20042;-71
2021/04/13 09:09:43;;;;;;;7.78;1.60;;;9.20;71.80;;;;;;5134055;27;20047;-70
2021/04/13 09:12:27;;;;;;;6.60;1.50;;;9.40;70.20;;;;;;5135256;27;20081;-70
2021/04/13 09:15:20;;;;;;;6.57;1.42;;;9.60;69.70;;;;;;5134895;27;20088;-71
2021/04/13 09:17:58;;;;;;;10.68;1.75;;;9.80;68.90;;;;;;5135066;27;20172;-70
2021/04/13 09:20:35;;;;;;;7.15;1.20;;;9.40;65.70;;;;;;5135170;27;20183;-70
2021/04/13 09:23:07;;;;;;;5.20;1.30;;;9.40;66.20;;;;;;5135502;27;20042;-70
2021/04/13 09:25:50;;;;;;;5.07;1.30;;;9.40;67.00;;;;;;5134842;27;20039;-71
2021/04/13 09:28:22;;;;;;;6.50;1.48;;;8.90;67.20;;;;;;5134849;27;20046;-71
2021/04/13 09:31:08;;;;;;;3.67;0.80;;;9.20;65.90;;;;;;5135035;27;20467;-71
2021/04/13 09:33:40;;;;;;;3.72;0.80;;;9.30;65.10;;;;;;5135264;27;20039;-70
2021/04/13 09:36:24;;;;;;;7.53;1.23;;;9.50;64.60;;;;;;5134399;27;20043;-70
2021/04/13 09:39:16;;;;;;;7.38;1.08;;;9.60;64.30;;;;;;5133675;27;20371;-70
2021/04/13 09:42:16;;;;;;;5.82;1.92;;;9.70;64.10;;;;;;5135030;27;20080;-70
2021/04/13 09:45:02;;;;;;;4.88;0.80;;;9.90;65.00;;;;;;5134050;27;20050;-71
2021/04/13 09:47:49;;;;;;;4.20;1.05;;;9.20;63.30;;;;;;5135109;27;20042;-70
2021/04/13 09:50:34;;;;;;;6.28;1.15;;;8.90;64.50;;;;;;5135138;27;20031;-70
2021/04/13 09:53:00;;;;;;;10.45;1.00;;;8.50;65.60;;;;;;5134827;27;20057;-71
2021/04/13 09:55:45;;;;;;;5.72;1.10;;;8.80;67.80;;;;;;5134322;27;20035;-70
2021/04/13 09:58:47;;;;;;;3.58;0.90;;;9.00;68.90;;;;;;5134374;27;20088;-70
2021/04/13 10:01:37;;;;;;;2.97;0.57;;;9.30;66.80;;;;;;5134819;27;20066;-70
2021/04/13 10:04:17;;;;;;;13.65;2.13;;;8.90;64.50;;;;;;5134385;27;20034;-70
2021/04/13 10:07:03;;;;;;;5.53;1.08;;;8.60;66.20;;;;;;5133912;27;20031;-70
2021/04/13 10:09:38;;;;;;;6.55;0.93;;;8.80;66.40;;;;;;5133567;27;20035;-70
2021/04/13 10:12:32;;;;;;;8.85;1.48;;;8.50;65.60;;;;;;5134050;27;20066;-70
2021/04/13 10:15:32;;;;;;;5.07;0.90;;;8.60;67.10;;;;;;5134391;27;20045;-71
2021/04/13 10:18:21;;;;;;;8.95;1.63;;;8.70;68.20;;;;;;5134682;27;20035;-70
2021/04/13 10:21:15;;;;;;;2.90;1.20;;;8.60;65.10;;;;;;5134057;27;20071;-70
2021/04/13 10:24:04;;;;;;;9.30;1.65;;;8.70;67.30;;;;;;5134716;27;20368;-70
2021/04/13 10:26:48;;;;;;;5.93;1.13;;;8.90;68.30;;;;;;5133860;27;20047;-70
2021/04/13 10:29:32;;;;;;;2.97;1.02;;;9.10;67.80;;;;;;5134411;27;20051;-70
2021/04/13 10:32:33;;;;;;;5.68;0.82;;;9.00;67.00;;;;;;5134461;27;20035;-70
2021/04/13 10:35:20;;;;;;;6.57;1.48;;;8.80;64.60;;;;;;5132943;27;20470;-70
2021/04/13 10:38:23;;;;;;;7.22;0.90;;;8.90;65.80;;;;;;5134407;27;20046;-71
2021/04/13 10:41:36;;;;;;;2.47;1.00;;;9.20;65.40;;;;;;5134664;27;20087;-71
2021/04/13 10:44:17;;;;;;;9.23;0.80;;;9.30;60.20;;;;;;5101607;27;20059;-70
2021/04/13 10:46:58;;;;;;;5.25;0.70;;;9.40;61.10;;;;;;5134207;27;20035;-70
2021/04/13 10:49:54;;;;;;;3.15;1.00;;;9.60;63.90;;;;;;5133873;27;20039;-70
2021/04/13 10:52:38;;;;;;;4.25;0.60;;;9.70;59.80;;;;;;5134391;27;20478;-70
2021/04/13 10:55:25;;;;;;;2.05;0.80;;;9.60;61.90;;;;;;5133900;27;20031;-71
2021/04/13 10:58:24;;;;;;;6.97;1.00;;;9.80;64.20;;;;;;5135640;27;20047;-70
2021/04/13 11:01:12;;;;;;;5.75;0.70;;;9.90;62.90;;;;;;5137834;27;20061;-70
2021/04/13 11:04:04;;;;;;;8.68;1.58;;;9.80;61.30;;;;;;5138022;27;20046;-70
2021/04/13 11:07:11;;;;;;;5.07;0.75;;;9.80;63.20;;;;;;5137717;27;20042;-70
2021/04/13 11:09:57;;;;;;;5.97;0.90;;;9.50;60.10;;;;;;5131855;27;20486;-71
2021/04/13 11:12:36;;;;;;;4.45;0.63;;;9.00;62.50;;;;;;5137616;27;20042;-70
2021/04/13 11:15:29;;;;;;;6.50;1.67;;;8.80;64.30;;;;;;5137343;27;20088;-70
2021/04/13 11:17:59;;;;;;;11.20;2.80;;;8.70;67.00;;;;;;5137404;27;20043;-71
2021/04/13 11:20:47;;;;;;;5.32;0.90;;;8.60;66.90;;;;;;5136220;27;20495;-71
2021/04/13 11:23:18;;;;;;;10.15;1.20;;;8.50;67.70;;;;;;5137626;27;20375;-71
2021/04/13 11:25:59;;;;;;;4.45;0.90;;;8.60;68.00;;;;;;5137276;27;20039;-71
2021/04/13 11:28:53;;;;;;;4.38;1.45;;;8.70;66.20;;;;;;5137371;27;20410;-70
2021/04/13 11:31:34;;;;;;;5.18;0.70;;;9.10;65.40;;;;;;5137860;27;20038;-70
2021/04/13 11:34:05;;;;;;;3.22;0.60;;;9.40;60.40;;;;;;5137566;27;20035;-70
2021/04/13 11:36:41;;;;;;;1.98;0.55;;;9.40;61.00;;;;;;5137466;27;20035;-70
2021/04/13 11:39:47;;;;;;;4.15;0.65;;;9.10;58.90;;;;;;5137107;27;20043;-70
2021/04/13 11:42:27;;;;;;;2.47;0.40;;;9.00;59.30;;;;;;5136339;27;20046;-70
2021/04/13 11:45:16;;;;;;;6.35;1.20;;;9.20;56.80;;;;;;5136392;27;20376;-71
2021/04/13 11:47:51;;;;;;;2.38;0.60;;;8.90;53.30;;;;;;5131197;27;20055;-70
2021/04/13 11:50:22;;;;;;;6.03;0.90;;;8.90;55.40;;;;;;5137107;27;20114;-70
2021/04/13 11:52:59;;;;;;;6.18;0.40;;;9.10;58.20;;;;;;5137250;27;20391;-70
2021/04/13 11:55:31;;;;;;;3.83;0.65;;;9.20;57.50;;;;;;5136301;27;20051;-71
2021/04/13 11:58:24;;;;;;;2.78;0.57;;;9.30;58.20;;;;;;5137144;27;20053;-70
2021/04/13 12:01:18;;;;;;;2.92;0.60;;;9.20;55.40;;;;;;5136513;27;20039;-71
2021/04/13 12:04:06;;;;;;;2.60;0.73;;;9.00;57.10;;;;;;5136677;27;20050;-70
2021/04/13 12:07:00;;;;;;;3.30;0.65;;;9.00;59.10;;;;;;5136077;27;20373;-71
2021/04/13 12:09:36;;;;;;;3.55;0.47;;;9.10;60.80;;;;;;5135508;27;20035;-70
2021/04/13 12:12:04;;;;;;;7.22;1.00;;;9.40;59.70;;;;;;5136859;27;20474;-70
2021/04/13 12:14:37;;;;;;;6.13;0.90;;;9.50;59.90;;;;;;5136048;27;20036;-71
2021/04/13 12:17:07;;;;;;;5.43;0.75;;;9.60;58.20;;;;;;5136540;27;20080;-71
2021/04/13 12:19:33;;;;;;;3.30;0.63;;;9.50;57.40;;;;;;5136088;27;20088;-71
2021/04/13 12:22:01;;;;;;;4.38;0.47;;;9.50;54.70;;;;;;5136705;27;20039;-71
2021/04/13 12:24:39;;;;;;;3.47;0.88;;;9.10;55.80;;;;;;5135811;27;20484;-71
2021/04/13 12:27:26;;;;;;;3.05;0.80;;;8.90;57.60;;;;;;5136260;27;20035;-70
2021/04/13 12:30:21;;;;;;;2.15;0.43;;;8.80;58.90;;;;;;5136289;27;20047;-71
2021/04/13 12:32:47;;;;;;;;;;;9.20;60.10;;;;;;5136630;27;20038;-71
2021/04/13 12:35:53;;;;;;;10.77;2.95;;;9.10;59.60;;;;;;5135608;27;20285;-70
2021/04/13 12:38:45;;;;;;;3.67;1.50;;;9.10;58.90;;;;;;5136062;27;20045;-71
2021/04/13 12:41:28;;;;;;;6.63;1.00;;;8.90;59.20;;;;;;5133811;27;20050;-71
2021/04/13 12:44:13;;;;;;;5.90;0.65;;;8.70;59.30;;;;;;5136122;27;20039;-71
2021/04/13 12:46:40;;;;;;;2.50;0.50;;;8.90;57.70;;;;;;5134312;27;20036;-71
2021/04/13 12:49:12;;;;;;;5.38;1.58;;;9.20;59.60;;;;;;5136154;27;20042;-71
2021/04/13 12:51:53;;;;;;;0.95;0.22;;;9.60;57.80;;;;;;5136468;27;20046;-70
2021/04/13 12:54:27;;;;;;;1.42;0.40;;;9.60;52.80;;;;;;5136204;27;20119;-71
2021/04/13 12:57:01;;;;;;;2.85;0.80;;;9.60;52.00;;;;;;5135553;27;20502;-71
2021/04/13 12:59:28;;;;;;;;;;;9.70;53.70;;;;;;5134792;27;20031;-71
2021/04/13 13:01:54;;;;;;;3.03;0.68;;;9.70;54.00;;;;;;5135663;27;19915;-71
2021/04/13 13:04:23;;;;;;;3.95;0.63;;;9.50;55.70;;;;;;5135633;27;20042;-71
2021/04/13 13:06:54;;;;;;;1.67;0.40;;;9.40;54.90;;;;;;5135373;27;20031;-71
2021/04/13 13:09:38;;;;;;;2.08;0.63;;;9.30;53.50;;;;;;5135343;27;20042;-71
2021/04/13 13:12:09;;;;;;;2.97;0.50;;;9.10;50.90;;;;;;5136021;27;20099;-71
2021/04/13 13:14:39;;;;;;;3.92;0.70;;;9.10;53.20;;;;;;5134906;27;20050;-72
2021/04/13 13:17:07;;;;;;;5.13;0.77;;;8.80;55.30;;;;;;5134251;27;20075;-71
2021/04/13 13:19:35;;;;;;;4.43;0.60;;;8.80;58.90;;;;;;5134736;27;20063;-71
2021/04/13 13:22:11;;;;;;;5.47;0.80;;;8.80;60.20;;;;;;5134854;27;20059;-71
2021/04/13 13:24:36;;;;;;;2.42;1.00;;;8.80;59.60;;;;;;5135008;27;20042;-71
2021/04/13 13:27:17;;;;;;;5.47;0.70;;;9.00;60.00;;;;;;5135033;27;20398;-70
2021/04/13 13:29:44;;;;;;;5.28;0.70;;;9.10;60.40;;;;;;5134905;27;20352;-70
2021/04/13 13:32:13;;;;;;;9.02;1.10;;;9.30;61.40;;;;;;5134342;27;20065;-70
2021/04/13 13:34:40;;;;;;;2.47;0.85;;;9.20;62.00;;;;;;5134574;27;20390;-71
2021/04/13 13:37:09;;;;;;;4.95;1.30;;;9.40;62.80;;;;;;5134788;27;20039;-70
2021/04/13 13:39:35;;;;;;;3.50;0.70;;;9.60;63.20;;;;;;5133551;27;20039;-70
2021/04/13 13:42:16;;;;;;;4.72;0.73;;;9.40;63.10;;;;;;5134903;27;20118;-70
2021/04/13 13:44:48;;;;;;;2.25;0.77;;;9.30;63.30;;;;;;5134405;27;20729;-71
2021/04/13 13:47:19;;;;;;;4.10;0.90;;;9.00;62.60;;;;;;5133637;27;20039;-71
2021/04/13 13:49:51;;;;;;;3.10;0.68;;;8.90;62.10;;;;;;5135098;27;20035;-71